Главная страница
METAR-TAF:

METAR-TAF

Аэропорты :

Киншаса, Конго

широта: 04-23S, долгота: 015-26E, высота над уровнем моря: 309 м

Текущие метеонаблюдения

Эта сводка был подготовлена 29 минут назад, в 01:00 UTC
Ветер 4 Узел от юго-западный
Температура 23°C
Влажность 89%
Давление 1013 hPa
Видимость: 2000 м
дымка

METAR: FZAA 240100Z 22004KT 2000 BR NSC 23/21 Q1013 NOSIG

Время: 02:29 (01:29 UTC)

Прогноз

Эта сводка был подготовлена 2 часа и 29 минут назад, в 23:00 UTC
Прогноз действительный с 24-го 00 UTC до 25-го 06 UTC
Ветер 2 Узел от южный
Видимость: 3000 м
Рассеянная облачность на высоте 1400 фута
дымка
С 24-го 1100 UTC
Ветер 8 Узел от западно-северо-западный
Видимость: 7000 м
Отдельные облака на высоте 2000 фута

TAF: FZAA 232300Z 2400/2506 18002KT 3000 BR BKN014 FM241100 30008KT 7000 NSW SCT020

Метеонаблюдения и прогнозы для более 4000 аэропортов (сводки METAR и TAF).

Имеющиеся станции представлены на карте желтыми и красными точками.

Чтобы увидеть название станции, наведите на нее мышь.

Затем щелкните, чтобы увидеть метеонаблюдения и метеопрогнозы.

Управление картой: чтобы увеличить масштаб, щелкните зеленые кнопки с черным крестиком; чтобы уменьшить масштаб, щелкните зеленую кнопку с тире; для просмотра соседних карт щелкайте зеленые стрелки.


METAR-TAF: